createdAt,value
2022-10-10T00:00:19.112Z,2.28
2022-10-10T00:02:46.586Z,2.65
2022-10-10T00:05:14.014Z,2.83
2022-10-10T00:07:41.464Z,3.00
2022-10-10T00:10:10.636Z,2.13
2022-10-10T00:12:38.127Z,2.63
2022-10-10T00:15:06.112Z,4.10
2022-10-10T00:17:33.536Z,2.80
2022-10-10T00:20:00.991Z,3.25
2022-10-10T00:22:28.425Z,2.50
2022-10-10T00:24:55.869Z,3.22
2022-10-10T00:27:24.623Z,3.05
2022-10-10T00:29:52.168Z,2.55
2022-10-10T00:32:19.609Z,2.28
2022-10-10T00:34:47.031Z,2.90
2022-10-10T00:37:14.459Z,2.25
2022-10-10T00:39:41.889Z,2.40
2022-10-10T00:42:11.597Z,2.50
2022-10-10T00:44:41.438Z,2.92
2022-10-10T00:47:09.077Z,4.43
2022-10-10T00:49:36.958Z,1.80
2022-10-10T00:52:04.487Z,2.80
2022-10-10T00:54:32.282Z,2.45
2022-10-10T00:57:01.423Z,2.35
2022-10-10T00:59:29.010Z,2.25
2022-10-10T01:01:57.965Z,2.10
2022-10-10T01:04:30.603Z,3.92
2022-10-10T01:06:58.071Z,2.33
2022-10-10T01:09:25.503Z,2.83
2022-10-10T01:11:53.959Z,2.67
2022-10-10T01:14:27.835Z,2.72
2022-10-10T01:16:59.505Z,2.53
2022-10-10T01:19:51.586Z,2.38
2022-10-10T01:22:23.766Z,3.83
2022-10-10T01:24:56.770Z,3.13
2022-10-10T01:27:31.708Z,2.22
2022-10-10T01:30:02.486Z,2.88
2022-10-10T01:32:32.829Z,2.38
2022-10-10T01:35:09.437Z,2.22
2022-10-10T01:37:41.680Z,2.10
2022-10-10T01:40:12.402Z,2.00
2022-10-10T01:42:42.683Z,2.22
2022-10-10T01:45:11.600Z,1.90
2022-10-10T01:47:39.573Z,2.05
2022-10-10T01:50:08.626Z,4.22
2022-10-10T01:52:41.047Z,1.70
2022-10-10T01:55:29.868Z,2.33
2022-10-10T01:58:03.685Z,2.08
2022-10-10T02:00:32.949Z,2.20
2022-10-10T02:03:03.175Z,2.87
2022-10-10T02:05:33.505Z,2.60
2022-10-10T02:08:02.345Z,2.20
2022-10-10T02:10:31.862Z,2.45
2022-10-10T02:13:00.816Z,2.72
2022-10-10T02:15:30.092Z,2.33
2022-10-10T02:17:58.898Z,2.17
2022-10-10T02:20:27.633Z,2.85
2022-10-10T02:22:55.242Z,2.13
2022-10-10T02:25:24.557Z,2.08
2022-10-10T02:27:57.794Z,2.03
2022-10-10T02:30:25.223Z,2.78
2022-10-10T02:32:54.072Z,2.42
2022-10-10T02:35:24.329Z,2.20
2022-10-10T02:40:21.503Z,2.03
2022-10-10T02:42:49.368Z,1.98
2022-10-10T02:45:17.003Z,1.75
2022-10-10T02:47:45.299Z,2.22
2022-10-10T02:50:12.843Z,2.20
2022-10-10T02:52:41.810Z,4.43
2022-10-10T02:55:09.450Z,3.40
2022-10-10T02:57:36.929Z,3.15
2022-10-10T03:00:04.674Z,2.38
2022-10-10T03:02:32.123Z,2.75
2022-10-10T03:04:59.602Z,2.00
2022-10-10T03:07:27.131Z,2.75
2022-10-10T03:09:56.039Z,2.38
2022-10-10T03:12:23.452Z,3.25
2022-10-10T03:14:50.898Z,2.50
2022-10-10T03:17:18.324Z,3.22
2022-10-10T03:19:45.779Z,2.50
2022-10-10T03:22:13.217Z,3.47
2022-10-10T03:24:40.706Z,3.97
2022-10-10T03:27:09.452Z,2.70
2022-10-10T03:29:36.905Z,2.33
2022-10-10T03:32:06.920Z,2.15
2022-10-10T03:34:37.684Z,2.92
2022-10-10T03:37:05.113Z,3.25
2022-10-10T03:39:32.608Z,2.67
2022-10-10T03:42:00.062Z,2.15
2022-10-10T03:44:28.837Z,2.05
2022-10-10T03:46:56.280Z,3.55
2022-10-10T03:49:23.762Z,2.15
2022-10-10T03:51:51.278Z,1.65
2022-10-10T03:54:18.734Z,3.35
2022-10-10T03:56:46.231Z,3.45
2022-10-10T03:59:13.681Z,4.15
2022-10-10T04:01:42.487Z,3.28
2022-10-10T04:04:09.979Z,2.05
2022-10-10T04:06:37.422Z,1.65
2022-10-10T04:09:05.203Z,2.90
2022-10-10T04:11:32.651Z,2.95
2022-10-10T04:14:00.091Z,3.03
2022-10-10T04:16:27.539Z,1.55
2022-10-10T04:18:56.328Z,1.80
2022-10-10T04:21:23.762Z,4.18
2022-10-10T04:23:51.216Z,2.75
2022-10-10T04:26:18.668Z,2.80
2022-10-10T04:28:46.497Z,2.90
2022-10-10T04:31:14.043Z,2.08
2022-10-10T04:33:41.486Z,2.30
2022-10-10T04:36:10.288Z,2.33
2022-10-10T04:38:37.738Z,2.28
2022-10-10T04:41:05.349Z,3.00
2022-10-10T04:43:32.807Z,3.33
2022-10-10T04:46:00.254Z,2.05
2022-10-10T04:48:27.748Z,2.72
2022-10-10T04:50:55.429Z,1.88
2022-10-10T04:53:24.221Z,3.85
2022-10-10T04:55:51.661Z,3.17
2022-10-10T04:58:19.146Z,2.17
2022-10-10T05:00:46.658Z,2.20
2022-10-10T05:03:14.094Z,2.08
2022-10-10T05:05:41.556Z,2.45
2022-10-10T05:08:09.011Z,2.22
2022-10-10T05:10:38.727Z,2.00
2022-10-10T05:13:06.210Z,2.65
2022-10-10T05:15:35.174Z,3.08
2022-10-10T05:18:02.633Z,2.28
2022-10-10T05:20:30.098Z,2.67
2022-10-10T05:22:57.540Z,1.80
2022-10-10T05:25:25.018Z,3.42
2022-10-10T05:27:53.774Z,2.13
2022-10-10T05:30:21.281Z,5.78
2022-10-10T05:32:48.976Z,2.17
2022-10-10T05:35:17.455Z,2.38
2022-10-10T05:37:44.905Z,2.70
2022-10-10T05:40:12.625Z,2.72
2022-10-10T05:42:40.054Z,1.75
2022-10-10T05:45:10.029Z,2.45
2022-10-10T05:47:37.445Z,3.33
2022-10-10T05:50:05.383Z,1.65
2022-10-10T05:52:32.990Z,1.83
2022-10-10T05:55:00.440Z,4.13
2022-10-10T05:57:27.869Z,6.60
2022-10-10T05:59:55.298Z,5.60
2022-10-10T06:02:24.100Z,7.35
2022-10-10T06:04:51.580Z,26.80
2022-10-10T06:07:19.050Z,8.85
2022-10-10T06:09:46.802Z,10.20
2022-10-10T06:12:14.233Z,10.77
2022-10-10T06:14:41.886Z,11.43
2022-10-10T06:17:09.327Z,5.38
2022-10-10T06:19:38.092Z,9.98
2022-10-10T06:22:05.524Z,22.25
2022-10-10T06:24:33.113Z,31.52
2022-10-10T06:27:00.578Z,18.58
2022-10-10T06:29:28.106Z,19.60
2022-10-10T06:31:55.617Z,14.88
2022-10-10T06:34:23.054Z,13.73
2022-10-10T06:36:51.949Z,28.60
2022-10-10T06:39:19.600Z,24.13
2022-10-10T06:41:47.049Z,21.05
2022-10-10T06:44:14.486Z,20.98
2022-10-10T06:46:41.950Z,20.25
2022-10-10T06:49:09.397Z,21.45
2022-10-10T06:51:37.970Z,14.43
2022-10-10T06:54:06.873Z,25.90
2022-10-10T06:56:35.323Z,22.38
2022-10-10T06:59:02.785Z,17.95
2022-10-10T07:01:30.406Z,16.73
2022-10-10T07:03:57.943Z,18.13
2022-10-10T07:06:25.407Z,16.75
2022-10-10T07:08:52.851Z,12.63
2022-10-10T07:11:22.414Z,11.73
2022-10-10T07:13:50.986Z,13.60
2022-10-10T07:16:18.420Z,14.52
2022-10-10T07:18:45.866Z,11.77
2022-10-10T07:21:13.297Z,10.68
2022-10-10T07:23:40.785Z,11.40
2022-10-10T07:26:10.689Z,11.48
2022-10-10T07:28:39.582Z,6.65
2022-10-10T07:31:08.471Z,8.93
2022-10-10T07:33:36.680Z,8.50
2022-10-10T07:36:04.149Z,6.70
2022-10-10T07:38:31.596Z,5.20
2022-10-10T07:40:59.031Z,8.52
2022-10-10T07:43:26.574Z,8.73
2022-10-10T07:45:55.360Z,10.10
2022-10-10T07:48:22.809Z,9.73
2022-10-10T07:50:50.246Z,219.88
2022-10-10T07:53:17.686Z,33.78
2022-10-10T07:55:45.107Z,37.22
2022-10-10T07:58:12.584Z,42.30
2022-10-10T08:00:41.765Z,35.60
2022-10-10T08:03:12.057Z,40.63
2022-10-10T08:05:41.014Z,33.30
2022-10-10T08:08:08.514Z,32.28
2022-10-10T08:10:36.000Z,35.85
2022-10-10T08:13:03.433Z,30.52
2022-10-10T08:15:33.818Z,24.20
2022-10-10T08:18:01.640Z,25.85
2022-10-10T08:20:30.421Z,26.20
2022-10-10T08:22:57.851Z,22.08
2022-10-10T08:25:25.309Z,27.63
2022-10-10T08:27:52.737Z,24.63
2022-10-10T08:30:20.178Z,27.00
2022-10-10T08:32:47.607Z,37.25
2022-10-10T08:35:15.212Z,32.63
2022-10-10T08:37:43.961Z,23.23
2022-10-10T08:40:11.554Z,26.27
2022-10-10T08:42:46.978Z,24.00
2022-10-10T08:45:17.485Z,22.35
2022-10-10T08:47:46.834Z,23.50
2022-10-10T08:50:17.063Z,28.50
2022-10-10T08:52:48.763Z,20.40
2022-10-10T08:55:18.006Z,18.23
2022-10-10T08:57:49.385Z,18.88
2022-10-10T09:00:18.414Z,19.15
2022-10-10T09:02:56.327Z,19.38
2022-10-10T09:05:31.119Z,25.60
2022-10-10T09:08:14.938Z,21.63
2022-10-10T09:10:46.666Z,23.45
2022-10-10T09:13:19.974Z,38.65
2022-10-10T09:15:52.827Z,33.70
2022-10-10T09:18:23.317Z,28.80
2022-10-10T09:20:53.310Z,34.25
2022-10-10T09:23:23.017Z,26.85
2022-10-10T09:25:53.590Z,31.67
2022-10-10T09:28:23.016Z,33.92
2022-10-10T09:30:51.962Z,35.10
2022-10-10T09:33:24.696Z,28.27
2022-10-10T09:35:52.137Z,24.45
2022-10-10T09:38:32.142Z,36.08
2022-10-10T09:41:00.929Z,24.73
2022-10-10T09:43:31.074Z,27.02
2022-10-10T09:48:28.561Z,30.00
2022-10-10T09:53:25.225Z,28.30
2022-10-10T09:55:53.606Z,24.63
2022-10-10T09:58:24.858Z,24.80
2022-10-10T10:00:53.691Z,21.77
2022-10-10T10:03:21.822Z,26.52
2022-10-10T10:05:55.981Z,20.80
2022-10-10T10:10:48.042Z,16.70
2022-10-10T10:13:15.566Z,17.55
2022-10-10T10:15:48.481Z,13.07
2022-10-10T10:18:24.869Z,17.70
2022-10-10T10:20:52.761Z,11.82
2022-10-10T10:23:24.522Z,10.48
2022-10-10T10:26:00.876Z,10.20
2022-10-10T10:28:28.986Z,14.15
2022-10-10T10:30:57.689Z,7.32
2022-10-10T10:33:39.308Z,10.05
2022-10-10T10:36:12.798Z,13.40
2022-10-10T10:38:43.192Z,11.52
2022-10-10T10:41:15.065Z,12.35
2022-10-10T10:43:55.958Z,8.77
2022-10-10T10:46:30.842Z,11.07
2022-10-10T10:49:01.995Z,9.70
2022-10-10T10:51:49.069Z,8.90
2022-10-10T10:54:24.690Z,6.80
2022-10-10T10:56:58.878Z,7.43
2022-10-10T11:00:25.877Z,7.88
2022-10-10T11:02:54.694Z,8.48
2022-10-10T11:05:41.659Z,9.88
2022-10-10T11:08:36.718Z,7.55
2022-10-10T11:11:10.874Z,6.32
2022-10-10T11:13:41.318Z,8.82
2022-10-10T11:16:36.350Z,6.80
2022-10-10T11:19:06.321Z,9.80
2022-10-10T11:21:34.006Z,6.90
2022-10-10T11:24:03.312Z,5.13
2022-10-10T11:26:31.619Z,5.87
2022-10-10T11:29:01.627Z,7.32
2022-10-10T11:33:58.618Z,6.25
2022-10-10T11:36:26.854Z,6.23
2022-10-10T11:38:55.750Z,7.38
2022-10-10T11:41:23.858Z,7.70
2022-10-10T11:43:52.716Z,5.70
2022-10-10T11:46:26.269Z,7.05
2022-10-10T11:48:58.057Z,6.70
2022-10-10T11:51:32.165Z,5.05
2022-10-10T11:54:01.124Z,7.03
2022-10-10T11:56:31.134Z,4.70
2022-10-10T11:59:00.985Z,7.32
2022-10-10T12:01:30.516Z,7.55
2022-10-10T12:03:58.164Z,5.93
2022-10-10T12:06:26.644Z,6.60
2022-10-10T12:08:58.374Z,5.35
2022-10-10T12:11:27.613Z,6.53
2022-10-10T12:13:55.831Z,7.77
2022-10-10T12:16:29.553Z,6.95
2022-10-10T12:19:01.832Z,9.75
2022-10-10T12:21:30.162Z,9.52
2022-10-10T12:24:02.053Z,7.22
2022-10-10T12:27:03.073Z,10.10
2022-10-10T12:29:41.032Z,21.02
2022-10-10T12:32:24.172Z,7.45
2022-10-10T12:34:59.566Z,161.38
2022-10-10T12:37:27.369Z,106.82
2022-10-10T12:40:03.054Z,63.17
2022-10-10T12:42:32.006Z,44.92
2022-10-10T12:44:59.553Z,91.97
2022-10-10T12:47:52.761Z,121.47
2022-10-10T12:50:22.949Z,72.03
2022-10-10T12:52:51.853Z,81.55
2022-10-10T12:55:21.302Z,78.22
2022-10-10T12:57:49.212Z,75.05
2022-10-10T13:00:18.105Z,75.63
2022-10-10T13:02:47.226Z,70.40
2022-10-10T13:05:16.061Z,74.07
2022-10-10T13:07:45.589Z,66.95
2022-10-10T13:10:22.166Z,68.40
2022-10-10T13:12:59.335Z,61.22
2022-10-10T13:15:26.924Z,61.85
2022-10-10T13:17:54.391Z,38.28
2022-10-10T13:20:28.626Z,21.60
2022-10-10T13:22:57.816Z,27.42
2022-10-10T13:25:25.268Z,23.37
2022-10-10T13:27:52.710Z,26.33
2022-10-10T13:30:20.476Z,23.67
2022-10-10T13:32:47.924Z,23.73
2022-10-10T13:35:16.297Z,21.63
2022-10-10T13:37:43.795Z,20.50
2022-10-10T13:40:15.711Z,23.10
2022-10-10T13:42:43.183Z,22.83
2022-10-10T13:45:31.443Z,21.73
2022-10-10T13:48:12.360Z,21.45
2022-10-10T13:50:53.684Z,26.65
2022-10-10T13:53:25.808Z,22.73
2022-10-10T13:55:58.708Z,23.88
2022-10-10T13:58:26.269Z,21.05
2022-10-10T14:00:57.096Z,19.42
2022-10-10T14:03:24.557Z,22.30
2022-10-10T14:05:51.982Z,18.95
2022-10-10T14:08:20.441Z,18.52
2022-10-10T14:10:58.586Z,18.85
2022-10-10T14:13:26.086Z,17.55
2022-10-10T14:15:54.363Z,15.90
2022-10-10T14:18:22.692Z,18.42
2022-10-10T14:20:50.395Z,16.08
2022-10-10T14:23:17.858Z,18.88
2022-10-10T14:25:46.564Z,15.75
2022-10-10T14:28:15.825Z,16.60
2022-10-10T14:30:43.326Z,15.68
2022-10-10T14:33:11.859Z,15.00
2022-10-10T14:35:39.579Z,15.65
2022-10-10T14:38:07.017Z,16.40
2022-10-10T14:40:34.634Z,15.40
2022-10-10T14:43:02.083Z,13.60
2022-10-10T14:45:30.847Z,14.32
2022-10-10T14:47:58.272Z,13.52
2022-10-10T14:50:26.881Z,14.70
2022-10-10T14:52:54.484Z,12.25
2022-10-10T14:55:21.933Z,15.52
2022-10-10T14:57:49.377Z,12.63
2022-10-10T15:00:18.417Z,14.30
2022-10-10T15:02:47.273Z,17.38
2022-10-10T15:05:14.922Z,16.67
2022-10-10T15:07:42.353Z,12.80
2022-10-10T15:10:32.728Z,13.18
2022-10-10T15:12:58.095Z,15.15
2022-10-10T15:15:25.534Z,12.27
2022-10-10T15:17:54.302Z,15.75
2022-10-10T15:20:25.453Z,11.88
2022-10-10T15:22:52.903Z,12.10
2022-10-10T15:25:20.435Z,11.35
2022-10-10T15:27:48.135Z,13.77
2022-10-10T15:30:15.584Z,13.20
2022-10-10T15:32:43.022Z,12.65
2022-10-10T15:35:14.344Z,10.95
2022-10-10T15:37:41.773Z,11.15
2022-10-10T15:40:10.132Z,10.93
2022-10-10T15:42:37.566Z,10.77
2022-10-10T15:45:05.356Z,9.45
2022-10-10T15:47:33.124Z,11.52
2022-10-10T15:50:00.879Z,11.23
2022-10-10T15:52:29.692Z,10.65
2022-10-10T15:54:57.129Z,11.82
2022-10-10T15:57:24.585Z,10.20
2022-10-10T15:59:52.025Z,10.02
2022-10-10T16:02:19.494Z,11.27
2022-10-10T16:04:46.949Z,8.95
2022-10-10T16:07:31.752Z,11.90
2022-10-10T16:10:03.329Z,9.60
2022-10-10T16:12:30.762Z,10.02
2022-10-10T16:14:59.053Z,10.43
2022-10-10T16:17:28.657Z,9.43
2022-10-10T16:19:56.130Z,9.27
2022-10-10T16:22:23.589Z,9.65
2022-10-10T16:25:10.317Z,9.35
2022-10-10T16:27:39.845Z,11.25
2022-10-10T16:30:08.630Z,8.10
2022-10-10T16:32:41.770Z,9.63
2022-10-10T16:35:10.534Z,8.63
2022-10-10T16:37:38.330Z,8.52
2022-10-10T16:40:07.164Z,8.73
2022-10-10T16:42:35.356Z,10.23
2022-10-10T16:45:04.610Z,10.43
2022-10-10T16:47:32.056Z,8.53
2022-10-10T16:49:59.486Z,7.72
2022-10-10T16:52:27.005Z,8.00
2022-10-10T16:54:54.468Z,7.07
2022-10-10T16:57:21.930Z,7.05
2022-10-10T16:59:49.360Z,8.52
2022-10-10T17:02:18.126Z,8.55
2022-10-10T17:04:45.576Z,8.90
2022-10-10T17:07:13.019Z,12.25
2022-10-10T17:09:40.573Z,9.40
2022-10-10T17:12:08.040Z,7.60
2022-10-10T17:14:35.486Z,8.68
2022-10-10T17:17:18.230Z,8.88
2022-10-10T17:19:49.019Z,7.07
2022-10-10T17:22:16.608Z,8.60
2022-10-10T17:24:44.046Z,6.30
2022-10-10T17:27:11.635Z,8.15
2022-10-10T17:29:39.065Z,7.28
2022-10-10T17:32:06.950Z,7.30
2022-10-10T17:34:34.959Z,6.65
2022-10-10T17:37:03.860Z,5.72
2022-10-10T17:39:31.764Z,7.35
2022-10-10T17:41:59.840Z,7.47
2022-10-10T17:44:27.331Z,8.32
2022-10-10T17:46:54.762Z,8.20
2022-10-10T17:49:22.214Z,6.97
2022-10-10T17:51:49.697Z,6.30
2022-10-10T17:54:18.509Z,5.63
2022-10-10T17:56:45.986Z,5.97
2022-10-10T17:59:13.543Z,6.30
2022-10-10T18:01:41.125Z,6.65
2022-10-10T18:04:08.764Z,8.50
2022-10-10T18:06:37.042Z,6.78
2022-10-10T18:09:04.733Z,6.30
2022-10-10T18:11:33.526Z,6.93
2022-10-10T18:14:01.286Z,6.55
2022-10-10T18:16:29.908Z,7.85
2022-10-10T18:18:57.385Z,5.93
2022-10-10T18:21:24.847Z,8.38
2022-10-10T18:23:52.441Z,5.00
2022-10-10T18:26:20.892Z,6.03
2022-10-10T18:28:52.219Z,6.07
2022-10-10T18:31:21.423Z,6.00
2022-10-10T18:33:48.893Z,5.90
2022-10-10T18:36:17.408Z,5.15
2022-10-10T18:38:44.860Z,5.47
2022-10-10T18:41:13.264Z,5.20
2022-10-10T18:43:41.707Z,6.43
2022-10-10T18:46:11.335Z,6.88
2022-10-10T18:48:39.296Z,6.93
2022-10-10T18:51:07.716Z,5.35
2022-10-10T18:53:36.099Z,4.35
2022-10-10T18:56:03.675Z,4.25
2022-10-10T18:58:31.165Z,5.05
2022-10-10T19:00:59.457Z,6.50
2022-10-10T19:03:28.377Z,6.07
2022-10-10T19:05:55.825Z,5.60
2022-10-10T19:08:23.256Z,4.82
2022-10-10T19:10:51.078Z,5.88
2022-10-10T19:13:20.056Z,4.78
2022-10-10T19:15:49.863Z,4.90
2022-10-10T19:18:17.374Z,4.70
2022-10-10T19:20:46.187Z,3.80
2022-10-10T19:23:14.781Z,6.45
2022-10-10T19:25:42.409Z,4.90
2022-10-10T19:28:10.105Z,3.80
2022-10-10T19:30:38.912Z,4.43
2022-10-10T19:33:06.374Z,4.63
2022-10-10T19:35:36.301Z,5.50
2022-10-10T19:38:05.239Z,5.03
2022-10-10T19:40:32.691Z,3.83
2022-10-10T19:43:00.158Z,4.05
2022-10-10T19:45:27.708Z,4.53
2022-10-10T19:47:55.132Z,5.25
2022-10-10T19:50:22.584Z,5.32
2022-10-10T19:52:50.049Z,4.90
2022-10-10T19:55:19.853Z,3.58
2022-10-10T19:57:47.288Z,5.55
2022-10-10T20:00:15.700Z,3.78
2022-10-10T20:02:43.798Z,5.68
2022-10-10T20:05:11.287Z,4.95
2022-10-10T20:07:38.704Z,5.53
2022-10-10T20:10:06.861Z,3.88
2022-10-10T20:12:35.972Z,4.63
2022-10-10T20:15:03.470Z,4.53
2022-10-10T20:17:30.938Z,5.05
2022-10-10T20:19:58.487Z,4.85
2022-10-10T20:22:25.930Z,4.88
2022-10-10T20:24:53.449Z,4.20
2022-10-10T20:27:20.886Z,4.65
2022-10-10T20:29:49.672Z,4.18
2022-10-10T20:32:17.106Z,4.50
2022-10-10T20:34:44.565Z,4.50
2022-10-10T20:37:12.047Z,4.40
2022-10-10T20:39:39.602Z,4.47
2022-10-10T20:42:07.056Z,4.38
2022-10-10T20:44:34.689Z,4.28
2022-10-10T20:47:03.441Z,4.57
2022-10-10T20:49:30.898Z,4.75
2022-10-10T20:51:58.333Z,5.68
2022-10-10T20:54:25.809Z,5.45
2022-10-10T20:56:53.255Z,4.97
2022-10-10T20:59:21.077Z,6.13
2022-10-10T21:01:48.688Z,4.20
2022-10-10T21:04:17.579Z,5.25
2022-10-10T21:06:45.032Z,5.53
2022-10-10T21:09:13.699Z,4.20
2022-10-10T21:11:41.151Z,5.95
2022-10-10T21:14:08.696Z,4.72
2022-10-10T21:16:37.045Z,3.88
2022-10-10T21:19:04.850Z,6.18
2022-10-10T21:21:34.850Z,3.97
2022-10-10T21:24:03.589Z,6.50
2022-10-10T21:26:31.076Z,4.38
2022-10-10T21:28:58.662Z,4.07
2022-10-10T21:31:27.448Z,4.90
2022-10-10T21:33:54.983Z,5.95
2022-10-10T21:36:22.949Z,5.32
2022-10-10T21:38:51.718Z,5.60
2022-10-10T21:41:20.521Z,3.72
2022-10-10T21:43:48.689Z,4.53
2022-10-10T21:46:16.982Z,3.20
2022-10-10T21:48:44.564Z,6.32
2022-10-10T21:51:12.085Z,5.03
2022-10-10T21:53:39.530Z,7.15
2022-10-10T21:56:09.229Z,5.22
2022-10-10T21:58:37.416Z,4.43
2022-10-10T22:01:08.486Z,5.10
2022-10-10T22:03:35.989Z,4.10
2022-10-10T22:06:04.659Z,6.35
2022-10-10T22:08:32.353Z,5.63
2022-10-10T22:11:01.432Z,5.32
2022-10-10T22:13:30.195Z,4.60
2022-10-10T22:15:57.918Z,5.88
2022-10-10T22:18:25.439Z,6.28
2022-10-10T22:20:53.131Z,5.22
2022-10-10T22:23:20.780Z,5.80
2022-10-10T22:25:49.091Z,5.45
2022-10-10T22:28:16.788Z,5.80
2022-10-10T22:30:45.582Z,6.20
2022-10-10T22:33:13.007Z,6.00
2022-10-10T22:35:40.565Z,5.82
2022-10-10T22:38:08.024Z,5.35
2022-10-10T22:40:35.488Z,5.43
2022-10-10T22:43:02.991Z,5.45
2022-10-10T22:45:30.416Z,5.85
2022-10-10T22:47:59.156Z,3.90
2022-10-10T22:50:26.616Z,7.80
2022-10-10T22:52:54.061Z,4.55
2022-10-10T22:55:21.689Z,7.72
2022-10-10T22:57:49.143Z,4.00
2022-10-10T23:00:17.181Z,5.60
2022-10-10T23:02:44.601Z,7.38
2022-10-10T23:05:13.359Z,5.55
2022-10-10T23:07:40.803Z,5.35
2022-10-10T23:10:09.550Z,3.70
2022-10-10T23:12:38.050Z,4.10
2022-10-10T23:15:06.343Z,6.15
2022-10-10T23:17:33.791Z,4.10
2022-10-10T23:20:01.243Z,6.90
2022-10-10T23:22:29.998Z,5.38
2022-10-10T23:24:57.451Z,3.90
2022-10-10T23:27:24.891Z,5.63
2022-10-10T23:29:52.332Z,4.03
2022-10-10T23:32:19.784Z,4.60
2022-10-10T23:34:47.246Z,5.57
2022-10-10T23:37:14.686Z,3.97
2022-10-10T23:39:43.516Z,4.22
2022-10-10T23:42:10.948Z,4.18
2022-10-10T23:44:38.394Z,4.25
2022-10-10T23:47:05.891Z,4.70
2022-10-10T23:49:33.335Z,5.13
2022-10-10T23:52:00.753Z,5.10
2022-10-10T23:54:28.216Z,4.63
2022-10-10T23:56:56.980Z,4.18
2022-10-10T23:59:24.435Z,5.25
